createdAt,value
2023-05-23T00:02:00.509Z,100023.67
2023-05-23T00:05:04.482Z,100021.38
2023-05-23T00:08:05.457Z,100015.09
2023-05-23T00:11:07.792Z,100010.40
2023-05-23T00:14:08.550Z,100005.15
2023-05-23T00:17:08.689Z,100001.64
2023-05-23T00:20:09.480Z,100003.32
2023-05-23T00:23:11.502Z,100000.17
2023-05-23T00:26:11.565Z,99996.86
2023-05-23T00:29:11.531Z,99991.50
2023-05-23T00:32:11.481Z,99990.63
2023-05-23T00:35:11.538Z,99990.63
2023-05-23T00:38:13.530Z,99988.02
2023-05-23T00:41:07.664Z,99987.33
2023-05-23T00:44:07.509Z,99988.48
2023-05-23T00:47:09.542Z,99989.48
2023-05-23T00:50:09.590Z,99984.25
2023-05-23T00:53:09.604Z,99983.69
2023-05-23T00:56:09.732Z,99982.09
2023-05-23T00:59:09.551Z,99977.39
2023-05-23T01:02:10.822Z,99975.64
2023-05-23T01:05:10.584Z,99977.16
2023-05-23T01:08:12.820Z,99976.25
2023-05-23T01:11:17.894Z,99972.98
2023-05-23T01:14:28.050Z,99971.77
2023-05-23T01:17:47.649Z,99973.36
2023-05-23T01:20:56.635Z,99977.48
2023-05-23T01:24:21.593Z,99973.52
2023-05-23T01:27:57.613Z,99970.58
2023-05-23T01:30:57.580Z,99967.79
2023-05-23T01:33:59.559Z,99968.83
2023-05-23T01:37:01.557Z,99966.23
2023-05-23T01:40:03.641Z,99969.85
2023-05-23T01:43:04.631Z,99967.78
2023-05-23T01:46:06.737Z,99965.55
2023-05-23T01:49:07.686Z,99970.73
2023-05-23T01:52:07.739Z,99965.34
2023-05-23T01:55:07.706Z,99967.20
2023-05-23T01:58:08.690Z,99962.67
2023-05-23T02:01:08.708Z,99965.06
2023-05-23T02:04:08.622Z,99964.67
2023-05-23T02:07:08.724Z,99967.24
2023-05-23T02:10:08.687Z,99965.84
2023-05-23T02:13:08.673Z,99965.98
2023-05-23T02:16:13.219Z,99962.88
2023-05-23T02:19:15.750Z,99956.83
2023-05-23T02:22:15.697Z,99952.18
2023-05-23T02:25:15.706Z,99947.73
2023-05-23T02:28:15.690Z,99947.59
2023-05-23T02:31:15.766Z,99944.52
2023-05-23T02:34:18.420Z,99945.61
2023-05-23T02:37:18.700Z,99946.54
2023-05-23T02:40:18.734Z,99948.15
2023-05-23T02:43:18.721Z,99943.18
2023-05-23T02:46:19.793Z,99944.13
2023-05-23T02:49:19.751Z,99942.64
2023-05-23T02:52:19.787Z,99947.71
2023-05-23T02:55:19.770Z,99945.21
2023-05-23T02:58:19.872Z,99942.70
2023-05-23T03:01:19.821Z,99943.31
2023-05-23T03:04:20.779Z,99937.02
2023-05-23T03:07:28.207Z,99938.66
2023-05-23T03:10:28.755Z,99939.96
2023-05-23T03:13:31.304Z,99941.81
2023-05-23T03:16:31.810Z,99935.02
2023-05-23T03:19:34.162Z,99939.27
2023-05-23T03:22:35.867Z,99937.15
2023-05-23T03:25:35.830Z,99937.91
2023-05-23T03:28:35.881Z,99939.91
2023-05-23T03:31:35.833Z,99945.70
2023-05-23T03:34:36.818Z,99941.66
2023-05-23T03:37:40.144Z,99939.83
2023-05-23T03:40:39.965Z,99937.98
2023-05-23T03:43:42.082Z,99941.34
2023-05-23T03:46:46.099Z,99945.73
2023-05-23T03:49:59.815Z,99944.92
2023-05-23T03:53:00.864Z,99939.96
2023-05-23T03:56:01.909Z,99938.33
2023-05-23T03:59:02.105Z,99934.42
2023-05-23T04:02:04.838Z,99936.05
2023-05-23T04:05:04.898Z,99934.07
2023-05-23T04:08:07.958Z,99933.30
2023-05-23T04:11:07.868Z,99932.86
2023-05-23T04:14:07.908Z,99935.35
2023-05-23T04:17:07.907Z,99934.72
2023-05-23T04:20:07.921Z,99932.52
2023-05-23T04:23:07.912Z,99934.83
2023-05-23T04:26:10.884Z,99932.26
2023-05-23T04:29:17.911Z,99932.31
2023-05-23T04:32:17.908Z,99932.17
2023-05-23T04:35:18.950Z,99932.73
2023-05-23T04:38:19.935Z,99934.83
2023-05-23T04:41:21.921Z,99937.77
2023-05-23T04:44:59.964Z,99936.40
2023-05-23T04:48:27.945Z,99939.86
2023-05-23T04:51:27.962Z,99938.80
2023-05-23T04:54:37.933Z,99933.06
2023-05-23T04:57:37.975Z,99935.99
2023-05-23T05:00:40.207Z,99937.70
2023-05-23T05:03:42.003Z,99938.64
2023-05-23T05:06:41.987Z,99938.67
2023-05-23T05:09:42.012Z,99934.88
2023-05-23T05:12:41.959Z,99935.39
2023-05-23T05:15:43.009Z,99935.81
2023-05-23T05:18:44.059Z,99932.90
2023-05-23T05:21:46.990Z,99937.48
2023-05-23T05:24:47.069Z,99941.81
2023-05-23T05:27:47.981Z,99938.38
2023-05-23T05:30:49.009Z,99947.42
2023-05-23T05:33:52.044Z,99942.26
2023-05-23T05:36:54.075Z,99936.79
2023-05-23T05:39:54.088Z,99932.06
2023-05-23T05:42:55.047Z,99934.77
2023-05-23T05:45:56.134Z,99934.05
2023-05-23T05:48:57.050Z,99925.45
2023-05-23T05:51:59.308Z,99926.02
2023-05-23T05:55:01.106Z,99926.23
2023-05-23T05:58:02.427Z,99929.21
2023-05-23T06:01:18.158Z,99929.81
2023-05-23T06:04:18.211Z,99929.14
2023-05-23T06:07:18.138Z,99925.51
2023-05-23T06:10:20.305Z,99923.73
2023-05-23T06:13:22.083Z,99919.49
2023-05-23T06:16:23.145Z,99922.05
2023-05-23T06:19:23.188Z,99916.66
2023-05-23T06:22:23.119Z,99914.58
2023-05-23T06:25:23.113Z,99909.75
2023-05-23T06:28:23.116Z,99915.26
2023-05-23T06:31:23.200Z,99912.91
2023-05-23T06:34:24.154Z,99912.16
2023-05-23T06:37:24.143Z,99908.72
2023-05-23T06:40:25.155Z,99910.56
2023-05-23T06:43:25.129Z,99902.48
2023-05-23T06:46:43.172Z,99903.38
2023-05-23T06:49:43.160Z,99902.24
2023-05-23T06:52:43.221Z,99897.67
2023-05-23T06:55:43.374Z,99892.58
2023-05-23T06:58:47.084Z,99886.48
2023-05-23T07:01:49.271Z,99883.84
2023-05-23T07:04:51.215Z,99881.08
2023-05-23T07:08:10.166Z,99883.16
2023-05-23T07:11:21.252Z,99884.83
2023-05-23T07:14:24.225Z,99878.52
2023-05-23T07:17:27.321Z,99885.13
2023-05-23T07:20:28.267Z,99874.52
2023-05-23T07:23:36.283Z,99878.27
2023-05-23T07:26:36.282Z,99869.31
2023-05-23T07:29:36.240Z,99862.14
2023-05-23T07:32:37.436Z,99866.11
2023-05-23T07:35:37.232Z,99867.44
2023-05-23T07:38:37.263Z,99865.33
2023-05-23T07:41:37.251Z,99860.95
2023-05-23T07:44:37.242Z,99861.20
2023-05-23T07:47:37.438Z,99859.91
2023-05-23T07:50:38.392Z,99856.80
2023-05-23T07:53:41.313Z,99850.84
2023-05-23T07:56:42.317Z,99847.54
2023-05-23T07:59:43.538Z,99842.77
2023-05-23T08:03:03.307Z,99839.95
2023-05-23T08:06:07.286Z,99838.01
2023-05-23T08:09:07.343Z,99841.87
2023-05-23T08:12:10.296Z,99836.67
2023-05-23T08:15:10.331Z,99836.28
2023-05-23T08:18:15.479Z,99825.99
2023-05-23T08:21:15.569Z,99822.27
2023-05-23T08:24:15.465Z,99821.77
2023-05-23T08:27:17.464Z,99825.31
2023-05-23T08:30:21.372Z,99817.73
2023-05-23T08:33:21.383Z,99817.08
2023-05-23T08:36:22.322Z,99815.96
2023-05-23T08:39:22.391Z,99812.27
2023-05-23T08:42:38.442Z,99801.56
2023-05-23T08:45:40.435Z,99801.02
2023-05-23T08:48:40.459Z,99798.77
2023-05-23T08:51:41.424Z,99800.95
2023-05-23T08:54:53.134Z,99795.70
2023-05-23T08:57:55.433Z,99790.02
2023-05-23T09:01:07.675Z,99787.04
2023-05-23T09:04:11.622Z,99786.73
2023-05-23T09:07:19.439Z,99790.23
2023-05-23T09:10:28.444Z,99786.14
2023-05-23T09:13:30.392Z,99775.63
2023-05-23T09:16:32.533Z,99778.83
2023-05-23T09:19:36.546Z,99774.23
2023-05-23T09:22:46.650Z,99768.03
2023-05-23T09:25:46.488Z,99760.34
2023-05-23T09:28:48.460Z,99764.73
2023-05-23T09:31:50.545Z,99768.64
2023-05-23T09:34:56.527Z,99769.88
2023-05-23T09:38:02.470Z,99762.98
2023-05-23T09:41:03.482Z,99760.30
2023-05-23T09:44:05.637Z,99758.63
2023-05-23T09:47:07.670Z,99759.88
2023-05-23T09:50:07.521Z,99755.02
2023-05-23T09:53:07.486Z,99752.52
2023-05-23T09:56:07.514Z,99754.83
2023-05-23T09:59:08.593Z,99751.18
2023-05-23T10:02:09.573Z,99750.26
2023-05-23T10:05:09.530Z,99750.11
2023-05-23T10:08:13.536Z,99750.63
2023-05-23T10:11:28.512Z,99750.93
2023-05-23T10:14:29.644Z,99755.63
2023-05-23T10:17:52.669Z,99750.81
2023-05-23T10:20:53.536Z,99753.39
2023-05-23T10:23:54.576Z,99746.71
2023-05-23T10:26:56.541Z,99745.02
2023-05-23T10:29:56.558Z,99740.05
2023-05-23T10:32:56.572Z,99733.20
2023-05-23T10:36:21.627Z,99732.40
2023-05-23T10:39:29.590Z,99727.15
2023-05-23T10:42:58.601Z,99730.16
2023-05-23T10:45:58.740Z,99735.42
2023-05-23T10:48:58.634Z,99733.83
2023-05-23T10:52:05.626Z,99732.23
2023-05-23T10:55:06.613Z,99731.92
2023-05-23T10:58:28.617Z,99730.67
2023-05-23T11:01:28.683Z,99735.00
2023-05-23T11:04:21.953Z,99734.17
2023-05-23T11:07:44.666Z,99731.33
2023-05-23T11:10:44.668Z,99727.07
2023-05-23T11:14:08.673Z,99721.90
2023-05-23T11:17:08.677Z,99720.30
2023-05-23T11:20:14.638Z,99723.95
2023-05-23T11:23:16.726Z,99719.19
2023-05-23T11:26:17.751Z,99718.86
2023-05-23T11:29:20.740Z,99718.52
2023-05-23T11:32:24.881Z,99722.07
2023-05-23T11:35:24.908Z,99709.67
2023-05-23T11:38:24.707Z,99709.40
2023-05-23T11:41:24.756Z,99703.13
2023-05-23T11:44:25.696Z,99704.23
2023-05-23T11:47:25.714Z,99707.13
2023-05-23T11:50:26.799Z,99709.34
2023-05-23T11:53:27.790Z,99704.40
2023-05-23T11:56:27.797Z,99695.10
2023-05-23T11:59:27.765Z,99697.31
2023-05-23T12:02:27.852Z,99698.98
2023-05-23T12:05:27.763Z,99699.68
2023-05-23T12:08:27.740Z,99703.05
2023-05-23T12:11:30.215Z,99699.91
2023-05-23T12:14:31.768Z,99696.98
2023-05-23T12:17:33.817Z,99699.00
2023-05-23T12:20:33.958Z,99697.95
2023-05-23T12:23:35.848Z,99692.72
2023-05-23T12:26:35.836Z,99689.19
2023-05-23T12:29:42.077Z,99686.84
2023-05-23T12:32:44.864Z,99685.08
2023-05-23T12:35:45.819Z,99687.95
2023-05-23T12:38:50.864Z,99680.63
2023-05-23T12:41:52.250Z,99678.88
2023-05-23T12:44:54.854Z,99679.59
2023-05-23T12:47:56.877Z,99677.19
2023-05-23T12:50:56.815Z,99675.11
2023-05-23T12:53:56.860Z,99669.31
2023-05-23T12:56:59.100Z,99669.63
2023-05-23T12:59:59.046Z,99660.60
2023-05-23T13:02:59.881Z,99659.84
2023-05-23T13:05:59.899Z,99661.89
2023-05-23T13:09:03.295Z,99664.34
2023-05-23T13:12:05.065Z,99659.98
2023-05-23T13:15:05.974Z,99662.18
2023-05-23T13:18:05.984Z,99658.48
2023-05-23T13:21:05.998Z,99653.33
2023-05-23T13:24:06.987Z,99653.41
2023-05-23T13:27:06.918Z,99644.33
2023-05-23T13:30:08.069Z,99642.18
2023-05-23T13:33:08.979Z,99640.23
2023-05-23T13:36:08.930Z,99639.04
2023-05-23T13:39:08.938Z,99644.83
2023-05-23T13:42:08.935Z,99639.17
2023-05-23T13:45:10.003Z,99643.14
2023-05-23T13:48:11.010Z,99644.89
2023-05-23T13:51:12.161Z,99641.95
2023-05-23T13:54:11.992Z,99639.30
2023-05-23T13:57:26.991Z,99634.19
2023-05-23T14:00:26.972Z,99636.49
2023-05-23T14:03:27.091Z,99634.20
2023-05-23T14:06:27.384Z,99638.41
2023-05-23T14:09:30.010Z,99641.13
2023-05-23T14:12:31.732Z,99647.84
2023-05-23T14:15:34.668Z,99642.36
2023-05-23T14:18:35.018Z,99640.09
2023-05-23T14:21:35.205Z,99638.72
2023-05-23T14:24:37.543Z,99638.70
2023-05-23T14:27:38.007Z,99635.81
2023-05-23T14:30:39.074Z,99641.91
2023-05-23T14:33:39.115Z,99642.27
2023-05-23T14:36:45.008Z,99648.48
2023-05-23T14:39:45.276Z,99641.81
2023-05-23T14:42:47.597Z,99634.33
2023-05-23T14:45:51.516Z,99637.19
2023-05-23T14:48:57.341Z,99638.08
2023-05-23T14:51:58.091Z,99638.31
2023-05-23T14:54:59.053Z,99634.40
2023-05-23T14:58:19.049Z,99635.35
2023-05-23T15:01:22.080Z,99626.52
2023-05-23T15:04:23.481Z,99623.13
2023-05-23T15:07:25.173Z,99629.05
2023-05-23T15:10:25.156Z,99625.94
2023-05-23T15:13:25.194Z,99627.08
2023-05-23T15:16:25.217Z,99626.23
2023-05-23T15:19:26.173Z,99626.84
2023-05-23T15:25:47.870Z,99622.50
2023-05-23T15:28:55.140Z,99624.56
2023-05-23T15:31:56.246Z,99624.33
2023-05-23T15:34:56.172Z,99622.59
2023-05-23T15:37:56.160Z,99624.34
2023-05-23T15:40:59.369Z,99621.51
2023-05-23T15:43:59.210Z,99622.23
2023-05-23T15:47:01.526Z,99622.33
2023-05-23T15:50:02.378Z,99621.70
2023-05-23T15:53:02.181Z,99623.37
2023-05-23T15:56:03.245Z,99626.11
2023-05-23T15:59:05.173Z,99628.68
2023-05-23T16:02:06.406Z,99646.91
2023-05-23T16:05:06.199Z,99649.31
2023-05-23T16:08:06.181Z,99646.48
2023-05-23T16:11:09.189Z,99650.80
2023-05-23T16:14:09.265Z,99648.98
2023-05-23T16:17:11.223Z,99647.36
2023-05-23T16:20:12.212Z,99648.25
2023-05-23T16:23:13.264Z,99649.38
2023-05-23T16:26:13.225Z,99646.08
2023-05-23T16:29:14.288Z,99645.22
2023-05-23T16:32:14.400Z,99639.20
2023-05-23T16:35:14.292Z,99642.55
2023-05-23T16:38:15.251Z,99641.45
2023-05-23T16:41:15.300Z,99639.33
2023-05-23T16:44:15.365Z,99636.81
2023-05-23T16:47:15.255Z,99637.56
2023-05-23T16:50:15.272Z,99639.14
2023-05-23T16:53:15.437Z,99638.55
2023-05-23T16:56:15.306Z,99638.36
2023-05-23T16:59:17.303Z,99642.55
2023-05-23T17:02:17.367Z,99640.73
2023-05-23T17:05:18.531Z,99639.90
2023-05-23T17:08:19.311Z,99643.27
2023-05-23T17:11:19.332Z,99643.00
2023-05-23T17:14:19.328Z,99644.02
2023-05-23T17:17:21.583Z,99646.40
2023-05-23T17:20:22.344Z,99647.42
2023-05-23T17:23:22.306Z,99645.84
2023-05-23T17:26:22.325Z,99652.07
2023-05-23T17:29:23.503Z,99654.82
2023-05-23T17:32:23.371Z,99657.74
2023-05-23T17:35:23.377Z,99659.13
2023-05-23T17:38:23.396Z,99660.42
2023-05-23T17:41:23.551Z,99659.50
2023-05-23T17:44:23.363Z,99660.49
2023-05-23T17:47:25.653Z,99661.81
2023-05-23T17:50:25.544Z,99666.45
2023-05-23T17:53:29.450Z,99667.95
2023-05-23T17:56:31.392Z,99672.19
2023-05-23T17:59:43.154Z,99673.83
2023-05-23T18:02:43.553Z,99678.11
2023-05-23T18:05:44.438Z,99681.02
2023-05-23T18:08:46.472Z,99684.83
2023-05-23T18:11:46.423Z,99687.71
2023-05-23T18:14:46.684Z,99691.46
2023-05-23T18:17:48.159Z,99689.51
2023-05-23T18:20:50.405Z,99695.36
2023-05-23T18:23:51.540Z,99696.70
2023-05-23T18:26:51.517Z,99693.60
2023-05-23T18:29:52.506Z,99697.39
2023-05-23T18:32:54.513Z,99695.61
2023-05-23T18:35:54.496Z,99699.23
2023-05-23T18:38:55.536Z,99697.08
2023-05-23T18:41:57.425Z,99696.10
2023-05-23T18:44:57.512Z,99693.95
2023-05-23T18:47:57.713Z,99695.44
2023-05-23T18:50:57.513Z,99692.90
2023-05-23T18:53:58.516Z,99694.05
2023-05-23T18:56:59.572Z,99689.58
2023-05-23T19:00:01.589Z,99692.62
2023-05-23T19:03:02.636Z,99697.20
2023-05-23T19:06:11.537Z,99700.92
2023-05-23T19:09:15.562Z,99705.01
2023-05-23T19:12:15.607Z,99711.51
2023-05-23T19:15:16.517Z,99716.09
2023-05-23T19:18:18.543Z,99715.08
2023-05-23T19:21:18.602Z,99712.16
2023-05-23T19:24:19.559Z,99712.73
2023-05-23T19:27:20.632Z,99712.81
2023-05-23T19:30:20.581Z,99713.21
2023-05-23T19:33:23.589Z,99712.59
2023-05-23T19:36:23.571Z,99713.33
2023-05-23T19:39:24.565Z,99716.33
2023-05-23T19:42:43.647Z,99715.83
2023-05-23T19:45:44.706Z,99718.67
2023-05-23T19:48:44.716Z,99716.70
2023-05-23T19:51:44.702Z,99720.63
2023-05-23T19:54:44.697Z,99714.23
2023-05-23T19:57:44.594Z,99712.00
2023-05-23T20:00:45.617Z,99713.05
2023-05-23T20:03:47.654Z,99715.02
2023-05-23T20:06:48.569Z,99718.89
2023-05-23T20:09:48.670Z,99716.88
2023-05-23T20:12:49.638Z,99722.70
2023-05-23T20:15:49.661Z,99729.89
2023-05-23T20:18:49.722Z,99734.68
2023-05-23T20:21:49.679Z,99737.19
2023-05-23T20:24:49.638Z,99737.45
2023-05-23T20:27:49.725Z,99736.65
2023-05-23T20:30:51.773Z,99734.45
2023-05-23T20:33:52.713Z,99731.91
2023-05-23T20:36:52.641Z,99735.44
2023-05-23T20:39:54.686Z,99735.13
2023-05-23T20:42:55.720Z,99733.38
2023-05-23T20:45:55.691Z,99737.61
2023-05-23T20:48:55.702Z,99737.15
2023-05-23T20:51:55.711Z,99737.43
2023-05-23T20:54:56.723Z,99738.39
2023-05-23T20:58:01.606Z,99742.45
2023-05-23T21:01:05.738Z,99741.30
2023-05-23T21:04:06.706Z,99743.44
2023-05-23T21:07:08.544Z,99742.98
2023-05-23T21:10:20.717Z,99744.77
2023-05-23T21:13:22.453Z,99742.21
2023-05-23T21:16:25.014Z,99745.04
2023-05-23T21:19:24.832Z,99744.03
2023-05-23T21:22:25.798Z,99746.88
2023-05-23T21:25:28.748Z,99747.61
2023-05-23T21:28:30.770Z,99748.88
2023-05-23T21:31:41.044Z,99749.10
2023-05-23T21:34:41.771Z,99748.13
2023-05-23T21:37:41.835Z,99752.54
2023-05-23T21:40:43.037Z,99752.59
2023-05-23T21:43:44.810Z,99756.07
2023-05-23T21:46:46.984Z,99754.86
2023-05-23T21:49:47.958Z,99760.64
2023-05-23T21:52:52.831Z,99759.79
2023-05-23T21:55:52.861Z,99758.95
2023-05-23T21:58:53.885Z,99753.06
2023-05-23T22:01:53.910Z,99754.98
2023-05-23T22:04:53.846Z,99756.07
2023-05-23T22:07:56.846Z,99758.88
2023-05-23T22:10:57.831Z,99756.67
2023-05-23T22:14:06.834Z,99761.91
2023-05-23T22:17:07.845Z,99756.18
2023-05-23T22:20:07.936Z,99753.10
2023-05-23T22:23:09.845Z,99755.90
2023-05-23T22:26:09.912Z,99756.80
2023-05-23T22:29:10.905Z,99753.16
2023-05-23T22:32:12.205Z,99753.52
2023-05-23T22:35:12.916Z,99749.38
2023-05-23T22:38:13.934Z,99749.73
2023-05-23T22:41:13.906Z,99748.88
2023-05-23T22:44:14.899Z,99747.67
2023-05-23T22:47:15.937Z,99749.58
2023-05-23T22:50:15.887Z,99751.30
2023-05-23T22:53:15.916Z,99749.23
2023-05-23T22:56:16.875Z,99751.16
2023-05-23T22:59:16.956Z,99750.48
2023-05-23T23:02:16.947Z,99748.74
2023-05-23T23:05:18.949Z,99756.56
2023-05-23T23:08:18.983Z,99751.02
2023-05-23T23:11:19.144Z,99748.73
2023-05-23T23:14:19.920Z,99747.19
2023-05-23T23:17:21.042Z,99747.19
2023-05-23T23:20:23.025Z,99743.73
2023-05-23T23:23:15.993Z,99740.11
2023-05-23T23:26:15.952Z,99741.17
2023-05-23T23:29:15.931Z,99744.83
2023-05-23T23:32:15.971Z,99742.58
2023-05-23T23:35:15.974Z,99741.20
2023-05-23T23:38:16.083Z,99738.77
2023-05-23T23:41:16.015Z,99739.99
2023-05-23T23:44:15.980Z,99742.78
2023-05-23T23:47:15.991Z,99740.55
2023-05-23T23:50:16.116Z,99744.20
2023-05-23T23:53:16.008Z,99747.99
2023-05-23T23:56:15.987Z,99749.73
2023-05-23T23:59:15.999Z,99745.59
